Tiempo atmosférico en la estación meteorológica de Teguise, Las Palmas (19 m.)



Fecha
DESCASC
Temp. máxima en grados centígrados (hora)
DESCASC
Temp. mínima en grados centígrados (hora)
DESCASC
Temp. media en grados centígrados
DESCASC
Racha de viento máxima en m/sg (hora)
DESCASC
Velocidad máxima media en intervalos de 10 minutos(hora)
DESCASC
Precipitaciones diarias en mm
DESCASC
Precipitaciones de 00:00 a 06:00 en mm
DESCASC
Precipitaciones de 06:00 a 12:00 en mm
DESCASC
Precipitaciones de 12:00 a 18:00 en mm
DESCASC
Precipitaciones de 18:00 a 24:00 en mm
DESCASC
22-01-2020 20.1 (12:40) 12.3 (05:50) 16.2 -- (--) -- (--) 0.8 0 0 0 0.8
21-01-2020 18.9 (14:50) 13.8 (07:10) 16.3 10 (12:10) 6.67 (12:10) 0 0 0 0 0
20-01-2020 19.7 (12:50) 14.4 (23:30) 17.1 14.44 (12:50) 9.17 (14:10) 0 0 0 0 0
19-01-2020 21.4 (14:40) 15.4 (00:00) 18.4 -- (--) -- (--) 0 0 0 0 0
18-01-2020 20.5 (15:10) 15.3 (00:00) 17.9 11.39 (04:50) 8.89 (04:50) 0 0 0 0 0
17-01-2020 21.1 (13:40) 13.1 (00:00) 17.1 -- (--) -- (--) 0 0 0 0 0
16-01-2020 22.9 (13:10) 13.8 (00:00) 18.3 -- (--) -- (--) 0 0 0 0 0
15-01-2020 21.9 (13:20) 12.3 (00:00) 17.1 -- (--) -- (--) 0 0 0 0 0
14-01-2020 21.9 (13:10) 12.3 (00:00) 17.1 -- (--) -- (--) 0 0 0 0 0
13-01-2020 21.8 (14:30) 16.6 (00:00) 19.2 -- (--) -- (--) 0 0 0 0 0
12-01-2020 21 (14:00) 14.9 (00:00) 17.9 -- (--) -- (--) 0 0 0 0 0
11-01-2020 19.2 (14:10) 16.4 (00:00) 17.8 11.94 (19:50) 8.89 (12:30) 0 0 0 0 0
10-01-2020 21 (13:10) 16 (00:00) 18.5 -- (--) -- (--) 1.4 0.8 0.6 0 0
09-01-2020 21.1 (13:40) 15.7 (00:00) 18.4 12.5 (18:50) 9.17 (11:20) 0 0 0 0 0
08-01-2020 21.2 (13:00) 14.7 (00:00) 18 -- (--) -- (--) 0 0 0 0 0
07-01-2020 21.3 (13:10) 14.3 (00:00) 17.8 -- (--) -- (--) 0 0 0 0 0
06-01-2020 21.3 (13:10) 14.2 (00:00) 17.7 -- (--) -- (--) 0.4 0 0 0 0.4
05-01-2020 20.9 (12:40) 15 (00:00) 17.9 7.22 (15:40) 5.56 (15:30) 0 0 0 0 0
04-01-2020 21.1 (13:50) 15.6 (00:00) 18.4 -- (--) -- (--) 0 0 0 0 0
03-01-2020 20.9 (14:00) 16.4 (00:00) 18.6 11.11 (11:40) 7.5 (12:30) 0 0 0 0 0
02-01-2020 20.7 (13:00) 15.4 (00:00) 18.1 13.06 (04:30) 8.33 (17:40) 0 0 0 0 0
01-01-2020 20 (11:40) 15.6 (00:00) 17.8 15.56 (08:40) 6.67 (14:20) 0 0 0 0 0
31-12-2019 23.1 (15:10) 14.5 (00:00) 18.8 9.17 (16:20) 6.94 (02:30) 0 0 0 0 0
30-12-2019 22.7 (12:10) 15.8 (00:00) 19.3 10.28 (14:30) 7.78 (14:40) 0 0 0 0 0
29-12-2019 24.5 (13:10) 15.3 (00:00) 19.9 14.44 (14:00) 8.89 (14:00) 0 0 0 0 0
28-12-2019 25.8 (14:10) 15.9 (00:00) 20.8 -- (--) -- (--) 0 0 0 0 0
27-12-2019 24.3 (13:00) 17.2 (00:00) 20.8 -- (--) -- (--) 0 0 0 0 0

Gráficas

Temp. máximas Temp. mínimas Temp. medias Precipitaciones Rachas de viento máximas Velocidades máximas media en intervalos de 10 minutos

Datos horarios

Fecha y hora oficial Temperatura (ºC) Velocidad del viento (km/h) Dirección del viento Racha (km/h) Dirección de racha Precipitación (mm) Presión (hPa) Tendencia (hPa) Humedad (%)
2020-01-25 23:00:00 13.3 7 Norte 8 Norte 0 1022.9 1 79
2020-01-25 22:00:00 13.6 7 Norte 10 Norte 0 1023.1 2 77
2020-01-25 21:00:00 14.1 7 Norte 9 Norte 0 1022.6 2.3 77
2020-01-25 20:00:00 14.8 7 Norte 12 Norte 0 1021.9 1.7 74
2020-01-25 19:00:00 16.3 10 Norte 19 Norte 0 1021.1 0.9 69
2020-01-25 18:00:00 17.8 16 Norte -- -- 0 1020.3 0.1 62
2020-01-25 17:00:00 19.6 -- -- -- -- 0 1020.2 -0.4 57
2020-01-25 16:00:00 20.1 -- -- -- -- 0 1020.2 -1.1 57
2020-01-25 15:00:00 20.3 17 Noroeste 24 Noroeste 0 1020.2 -1.7 55
2020-01-25 14:00:00 19.3 -- -- -- -- 0 1020.6 -1.2 61
2020-01-25 13:00:00 20.4 -- -- -- -- 0 1021.3 0.1 56
2020-01-25 12:00:00 20.4 -- -- -- -- 0 1021.9 1.4 56
2020-01-25 11:00:00 19.5 14 Noroeste 21 Noroeste 0 1021.8 1.9 58
2020-01-25 10:00:00 18.8 14 Oeste 20 Noroeste 0 1021.2 2.1 64
2020-01-25 09:00:00 16.1 8 Oeste 13 Oeste 0 1020.5 1.9 74
2020-01-25 08:00:00 15.2 9 Noroeste 17 Oeste 0 1019.9 1.7 78
2020-01-25 07:00:00 15.1 11 Noroeste 16 Noroeste 0 1019.1 0.8 78
2020-01-25 06:00:00 15.4 11 Oeste 22 Oeste 0 1018.6 0.1 76
2020-01-25 05:00:00 15.7 12 Oeste 18 Oeste 0 1018.2 -0.4 78
2020-01-25 04:00:00 15.2 11 Oeste 15 Oeste 0 1018.3 -0.7 78
2020-01-25 03:00:00 14.4 11 Oeste 14 Oeste 0 1018.5 -0.8 79
2020-01-25 02:00:00 14.4 9 Oeste 15 Oeste 0 1018.6 -0.7 76
2020-01-25 01:00:00 14.9 10 Oeste 14 Oeste 0 1019 -0.3 78
2020-01-25 00:00:00 15.4 9 Oeste 17 Oeste 0 1019.3 0.4 76
2020-01-24 23:00:00 15.9 12 Oeste 17 Oeste 0 1019.3 0.7 77
2020-01-24 22:00:00 15.9 11 Oeste 19 Oeste 0 1019.3 1.4 75
2020-01-24 21:00:00 16.2 12 Oeste 17 Oeste 0 1018.9 1.6 75
2020-01-24 20:00:00 16.6 12 Oeste 19 Sudoeste 0 1018.6 1.6 78
2020-01-24 19:00:00 17.3 14 Sudoeste 22 Sudoeste 0 1017.9 1.1 75
2020-01-24 18:00:00 17.8 14 Sudoeste 24 Sudoeste 0 1017.3 0.4 70
2020-01-24 17:00:00 18.6 19 Sudoeste -- -- 0 1017 -0.4 67
2020-01-24 16:00:00 20.4 -- -- -- -- 0 1016.8 -1.3 59
2020-01-24 15:00:00 19.8 -- -- -- -- 0 1016.9 -1.9 64
2020-01-24 14:00:00 18.9 -- -- -- -- 0 1017.4 -1.7 61
2020-01-24 13:00:00 20.5 -- -- -- -- 0 1018.1 -0.5 65
2020-01-24 12:00:00 20.9 -- -- -- -- 0 1018.8 0.6 64
2020-01-24 11:00:00 20.1 21 Sudoeste 28 Sudoeste 0 1019.1 1.3 62
2020-01-24 10:00:00 18.8 18 Sur 25 Sudoeste 0 1018.6 1.3 65
2020-01-24 09:00:00 17.1 19 Sudoeste 26 Sur 0 1018.2 1.1 74
2020-01-24 08:00:00 15.9 21 Sur 24 Sur 0 1017.8 0.8 78
2020-01-24 07:00:00 16.1 19 Sur 24 Sur 0 1017.3 0.1 74
2020-01-24 06:00:00 16 17 Sur 23 Sur 0 1017.1 -0.2 73
2020-01-24 05:00:00 16 18 Sur 23 Sur 0 1017 -0.6 75
2020-01-24 04:00:00 16.3 18 Sur 30 Sudoeste 0 1017.2 -0.7 76
2020-01-24 03:00:00 16.1 21 Sur 27 Sur 0 1017.3 -0.8 77
2020-01-24 02:00:00 16.2 14 Sur 19 Sur 0 1017.6 -0.6 75
2020-01-24 01:00:00 16.1 14 Sudoeste 19 Sur 0 1017.9 -0.2 74
2020-01-24 00:00:00 16 13 Sur 19 Sur 0 1018.1 0.2 76
2020-01-23 23:00:00 16.5 15 Sur 20 Sur 0 1018.2 0.7 74
2020-01-23 22:00:00 16.7 14 Sur 19 Sudoeste 0 1018.1 1.3 71
2020-01-23 21:00:00 16.1 10 Sudoeste 15 Oeste 0 1017.9 1.4 70
2020-01-23 20:00:00 16.3 10 Sudoeste 18 Sudoeste 0 1017.5 1.2 68
2020-01-23 19:00:00 16.5 12 Sudoeste 19 Sudoeste 0 1016.8 0.6 68
2020-01-23 18:00:00 17.7 13 Sudoeste 20 Oeste 0 1016.5 0.4 63
2020-01-23 17:00:00 18.9 15 Sudoeste 24 Sudoeste 0 1016.3 0 56
2020-01-23 16:00:00 19.5 16 Sudoeste -- -- 0 1016.2 -0.8 54
2020-01-23 15:00:00 19.9 -- -- -- -- 0 1016.1 -1.5 55
2020-01-23 14:00:00 19.8 -- -- -- -- 0 1016.3 -1.3 54
2020-01-23 13:00:00 19.5 -- -- -- -- 0 1017 0 54
2020-01-23 12:00:00 19.2 14 Oeste 24 Oeste 0 1017.6 1.3 56
2020-01-23 11:00:00 18.7 18 Oeste 26 Oeste 0 1017.6 1.9 59
2020-01-23 10:00:00 17.8 18 Oeste 25 Oeste 0 1017 1.7 65
2020-01-23 09:00:00 16 15 Oeste 22 Oeste 0 1016.3 1.6 74
2020-01-23 08:00:00 15.1 13 Oeste 29 Sur 0 1015.7 0.9 78
2020-01-23 07:00:00 15.4 24 Sur 30 Sur 0 1015.3 0.3 81
2020-01-23 06:00:00 15.3 22 Sur 28 Sur 0 1014.7 -0.6 83
2020-01-23 05:00:00 14.9 18 Sudoeste 37 Sur 0 1014.8 -0.7 83
2020-01-23 04:00:00 15.7 23 Sur 32 Sur 0 1015 -0.6 78
2020-01-23 03:00:00 15.6 18 Sur 23 Sur 0 1015.3 -0.9 77
2020-01-23 02:00:00 15.7 17 Sudoeste 27 Sur 0 1015.5 -0.8 77
2020-01-23 01:00:00 15.6 18 Sudoeste 25 Sur 0 1015.6 -0.6 79
2020-01-23 00:00:00 15.5 17 Oeste 24 Oeste 0 1016.2 0.3 78
2020-01-22 23:00:00 14.7 10 Sudoeste 14 Oeste 0 1016.3 0.9 80
2020-01-22 22:00:00 14.5 11 Oeste 41 Oeste 0.8 1016.2 1.3 82
2020-01-22 21:00:00 16.3 12 Oeste 16 Oeste 0 1015.9 1.2 66
2020-01-22 20:00:00 15.5 11 Oeste 17 Oeste 0 1015.4 0.8 63
2020-01-22 19:00:00 16 10 Oeste 18 Sudoeste 0 1014.9 0.3 62
2020-01-22 18:00:00 17.7 13 Oeste -- -- 0 1014.7 0.1 57
2020-01-22 17:00:00 18.8 -- -- -- -- 0 1014.6 -0.1 51
2020-01-22 16:00:00 19.1 -- -- -- -- 0 1014.6 -0.9 52
2020-01-22 15:00:00 19.8 -- -- -- -- 0 1014.6 -1.7 51
2020-01-22 14:00:00 19.6 -- -- -- -- 0 1014.7 -1.9 55
2020-01-22 13:00:00 19.8 -- -- -- -- 0 1015.5 -0.5 50
2020-01-22 12:00:00 19.6 14 Oeste 24 Oeste 0 1016.3 0.5 54
2020-01-22 11:00:00 18.7 12 Sur 17 Sur 0 1016.6 1.2 61
2020-01-22 10:00:00 17.5 12 Sur 18 Sur 0 1016 1.2 65
2020-01-22 09:00:00 15.9 5 Sudoeste 9 Noroeste 0 1015.8 1.6 67
2020-01-22 08:00:00 13.7 9 Oeste 12 Oeste 0 1015.4 1.6 77
2020-01-22 07:00:00 13.1 3 Oeste 7 Noroeste 0 1014.8 0.5 77
2020-01-22 06:00:00 12.8 2 Sudoeste 9 Norte 0 1014.2 0 77
2020-01-22 05:00:00 13.3 0 Calma 10 Norte 0 1013.8 -0.5 76
2020-01-22 04:00:00 13.1 6 Noroeste 15 Noroeste 0 1014.3 -0.3 75
2020-01-22 03:00:00 14.1 9 Noroeste 15 Noroeste 0 1014.2 -0.5 71
2020-01-22 02:00:00 14.2 9 Norte 16 Noroeste 0 1014.3 -0.4 72
2020-01-22 01:00:00 14.8 12 Noroeste 19 Noroeste 0 1014.6 0.1 66
2020-01-22 00:00:00 15 13 Noroeste 22 Noroeste 0 1014.7 0.4 64
2020-01-21 23:00:00 14.8 9 Noroeste 17 Noroeste 0 1014.7 1 69
2020-01-21 22:00:00 14.8 11 Norte 20 Noroeste 0 1014.5 1.3 67
2020-01-21 21:00:00 15.4 13 Noroeste 17 Noroeste 0 1014.3 1.6 66
2020-01-21 20:00:00 15 11 Noroeste 16 Noroeste 0 1013.7 1.3 66
2020-01-21 19:00:00 15.1 10 Noroeste 19 Noroeste 0 1013.2 0.8 59
2020-01-21 18:00:00 16.5 13 Noroeste 21 Oeste 0 1012.7 0.5 57
2020-01-21 17:00:00 17.4 14 Noroeste 19 Noroeste 0 1012.4 0 56
2020-01-21 16:00:00 18.1 13 Noroeste 24 Norte 0 1012.4 -0.6 51
2020-01-21 15:00:00 18.6 14 Norte 24 Norte 0 1012.2 -1.3 49
2020-01-21 14:00:00 18.1 14 Noroeste 22 Noroeste 0 1012.4 -1.1 49
2020-01-21 13:00:00 18 14 Noroeste 36 Norte 0 1013 -0.3 52
2020-01-21 12:00:00 17.8 16 Noroeste 26 Noroeste 0 1013.5 0.7 52
2020-01-21 11:00:00 16.8 14 Norte 22 Noroeste 0 1013.5 1.1 57
2020-01-21 10:00:00 16 11 Norte 23 Norte 0 1013.3 1.4 63
2020-01-21 09:00:00 15.1 12 Noroeste 24 Noroeste 0 1012.8 1.1 64
2020-01-21 08:00:00 14.5 17 Noroeste 26 Noroeste 0 1012.4 0.9 70
2020-01-21 07:00:00 14 13 Noroeste 24 Noroeste 0 1011.9 0.2 64
2020-01-21 06:00:00 14.8 15 Noroeste 22 Noroeste 0 1011.7 -0.3 64
2020-01-21 05:00:00 14.9 17 Noroeste 26 Norte 0 1011.5 -1 58
2020-01-21 04:00:00 14.8 15 Norte 27 Norte 0 1011.7 -1.1 60
2020-01-21 03:00:00 14.4 15 Norte 26 Norte 0 1012 -1.1 61
2020-01-21 02:00:00 14.8 18 Norte 32 Norte 0 1012.5 -0.9 63
2020-01-21 01:00:00 14.4 8 Noroeste 33 Norte 0 1012.8 -0.7 69
2020-01-21 00:00:00 15.1 18 Norte 31 Norte 0 1013.1 -0.2 52
2020-01-20 23:00:00 15.1 20 Norte 37 Norte 0 1013.4 0.2 51
2020-01-20 22:00:00 15.7 20 Norte 33 Norte 0 1013.5 0.7 56
2020-01-20 21:00:00 15.6 26 Norte 39 Norte 0 1013.3 0.5 58
2020-01-20 20:00:00 15.7 24 Norte 43 Norte 0 1013.2 0.7 47
2020-01-20 19:00:00 15.7 23 Norte 41 Noroeste 0 1012.8 0.4 56
2020-01-20 18:00:00 16.4 28 Norte 45 Norte 0 1012.8 0.3 50
2020-01-20 17:00:00 17.3 26 Norte 41 Norte 0 1012.5 -0.6 49
2020-01-20 16:00:00 17.5 27 Norte 41 Norte 0 1012.4 -1.6 48
2020-01-20 15:00:00 19.2 30 Norte 49 Norte 0 1012.5 -2.4 40
2020-01-20 14:00:00 19.1 33 Norte 47 Norte 0 1013.1 -2.3 40
2020-01-20 13:00:00 18.5 31 Norte 52 Noroeste 0 1014 -1.1 44
2020-01-20 12:00:00 18.3 22 Norte 44 Norte 0 1014.9 -0.1 50
2020-01-20 11:00:00 19.4 25 Norte 42 Norte 0 1015.4 0.6 44
2020-01-20 10:00:00 17.9 25 Norte 37 Norte 0 1015.1 0.6 51
2020-01-20 09:00:00 17.5 26 Norte 46 Norte 0 1015 0.4 53
2020-01-20 08:00:00 17.2 20 Norte 39 Nordeste 0 1014.8 -0.3 57
2020-01-20 07:00:00 17.1 26 Norte 42 Norte 0 1014.5 -1.4 54
2020-01-20 06:00:00 16.8 24 Norte 38 Norte 0 1014.6 -2 58
2020-01-20 05:00:00 16.5 22 Norte 44 Norte 0 1015.1 -2.1 61
2020-01-20 04:00:00 16.8 27 Norte 41 Norte 0 1015.9 -2.3 64
2020-01-20 03:00:00 16.4 27 Norte 42 Norte 0 1016.6 -2.5 57
2020-01-20 02:00:00 16.5 23 Norte 42 Nordeste 0 1017.2 -2.6 60
2020-01-20 01:00:00 16.5 20 Norte 31 Norte 0 1018.2 -2 63
2020-01-20 00:00:00 16.5 21 Norte 37 Norte 0 1019.1 -1 61
2020-01-19 23:00:00 17.2 24 Norte 41 Norte 0 1019.8 -0.5 64
2020-01-19 22:00:00 17.3 23 Norte 39 Norte 0 1020.2 0 69
2020-01-19 21:00:00 17.4 26 Norte 41 Norte 0 1020.1 -0.5 77
2020-01-19 20:00:00 18 22 Norte 31 Norte 0 1020.3 -0.8 71
2020-01-19 19:00:00 17.5 22 Norte 36 Norte 0 1020.2 -1.2 82
2020-01-19 18:00:00 18.2 18 Norte 35 Norte 0 1020.6 -1.4 80
2020-01-19 17:00:00 18.5 23 Norte 37 Norte 0 1021.1 -1.3 79
2020-01-19 16:00:00 19 -- -- -- -- 0 1021.4 -2.3 75
2020-01-19 15:00:00 20.4 -- -- -- -- 0 1022 -2.6 66
2020-01-19 14:00:00 20.5 25 Nordeste 36 Nordeste 0 1022.4 -2.7 66
2020-01-19 13:00:00 20 27 Nordeste 37 Nordeste 0 1023.7 -1.5 70
2020-01-19 12:00:00 20.7 25 Nordeste 33 Nordeste 0 1024.6 -0.3 68
2020-01-19 11:00:00 20.4 23 Nordeste 30 Nordeste 0 1025.1 0.5 67
2020-01-19 10:00:00 19.4 19 Nordeste 26 Nordeste 0 1025.2 0.8 74
2020-01-19 09:00:00 17.8 19 Nordeste 29 Nordeste 0 1024.9 0.8 80
2020-01-19 08:00:00 16.5 23 Nordeste 37 Nordeste 0 1024.6 0.3 85
2020-01-19 07:00:00 16.7 27 Nordeste 37 Nordeste 0 1024.4 -0.3 85
2020-01-19 06:00:00 16.6 25 Nordeste 33 Nordeste 0 1024.1 -1.2 86
2020-01-19 05:00:00 16.6 24 Nordeste 31 Nordeste 0 1024.3 -1.4 88
2020-01-19 04:00:00 16.4 22 Nordeste 30 Nordeste 0 1024.7 -1.6 88
2020-01-19 03:00:00 16.4 23 Nordeste 31 Nordeste 0 1025.3 -1.4 92
2020-01-19 02:00:00 16 24 Nordeste 31 Nordeste 0 1025.7 -1.1 93
2020-01-19 01:00:00 15.5 22 Nordeste 28 Nordeste 0 1026.3 -0.6 93
2020-01-19 00:00:00 15.7 24 Nordeste 28 Nordeste 0 1026.7 -0.4 95
2020-01-18 23:00:00 15.4 22 Nordeste 24 Nordeste 0 1026.8 -0.1 94
2020-01-18 22:00:00 16 19 Nordeste 26 Nordeste 0 1026.9 0.4 91
2020-01-18 21:00:00 16.3 19 Nordeste 26 Nordeste 0 1027.1 0.7 91
2020-01-18 20:00:00 16.3 17 Nordeste 24 Nordeste 0 1026.9 0.4 88
2020-01-18 19:00:00 16.8 18 Nordeste 25 Nordeste 0 1026.5 -0.2 86
2020-01-18 18:00:00 17.9 20 Nordeste 24 Nordeste 0 1026.4 -0.3 82
2020-01-18 17:00:00 19.2 19 Nordeste 23 Nordeste 0 1026.5 -0.6 76
2020-01-18 16:00:00 20.1 19 Nordeste 24 Nordeste 0 1026.7 -1.3 71
2020-01-18 15:00:00 20.2 21 Nordeste 26 Nordeste 0 1026.7 -2.4 72
2020-01-18 14:00:00 20.2 21 Nordeste 29 Nordeste 0 1027.1 -2.6 73
2020-01-18 13:00:00 20 22 Nordeste -- -- 0 1028 -1.6 74
2020-01-18 12:00:00 19.8 -- -- -- -- 0 1029.1 0.3 71
2020-01-18 11:00:00 19.2 19 Nordeste 24 Nordeste 0 1029.7 1.3 73
2020-01-18 10:00:00 18.6 20 Norte 27 Nordeste 0 1029.6 1.8 76
2020-01-18 09:00:00 17.1 22 Nordeste 26 Nordeste 0 1028.8 1.8 81
2020-01-18 08:00:00 15.6 16 Nordeste 24 Nordeste 0 1028.4 1.6 88
2020-01-18 07:00:00 15.8 22 Nordeste 37 Nordeste 0 1027.8 0.5 86
2020-01-18 06:00:00 16.2 28 Nordeste 38 Nordeste 0 1027 -0.4 85
2020-01-18 05:00:00 16.3 32 Nordeste 41 Nordeste 0 1026.8 -0.8 86
2020-01-18 04:00:00 16.5 26 Nordeste 34 Nordeste 0 1027.3 -0.5 87
2020-01-18 03:00:00 16.5 27 Nordeste 35 Nordeste 0 1027.4 -0.8 85
2020-01-18 02:00:00 16.3 23 Nordeste 30 Nordeste 0 1027.6 -0.5 84
2020-01-18 01:00:00 16.1 23 Nordeste 30 Nordeste 0 1027.8 0.1 82
2020-01-18 00:00:00 16 21 Nordeste 28 Nordeste 0 1028.2 0.7 83
2020-01-17 23:00:00 16.1 21 Nordeste 28 Nordeste 0 1028.1 1.1 80
2020-01-17 22:00:00 16.1 24 Nordeste 31 Nordeste 0 1027.7 1 81
2020-01-17 21:00:00 16.5 23 Nordeste 32 Nordeste 0 1027.5 1.3 77
2020-01-17 20:00:00 16.7 24 Nordeste 30 Nordeste 0 1027 0.8 75
2020-01-17 19:00:00 16.8 22 Nordeste 29 Nordeste 0 1026.7 0.5 72
2020-01-17 18:00:00 17.7 18 Nordeste 26 Nordeste 0 1026.2 -0.1 64
2020-01-17 17:00:00 19 20 Nordeste -- -- 0 1026.2 -0.4 59
2020-01-17 16:00:00 20.5 -- -- -- -- 0 1026.2 -1.5 49
2020-01-17 15:00:00 20.9 -- -- -- -- 0 1026.3 -2.3 44
2020-01-17 14:00:00 20.9 17 Este 32 Este 0 1026.6 -2.4 47
2020-01-17 13:00:00 20.5 21 Este 41 Este 0 1027.7 -0.9 52
2020-01-17 12:00:00 20.1 27 Este 36 Este 0 1028.6 0.4 58
2020-01-17 11:00:00 19.6 23 Este 40 Este 0 1029 1.2 59
2020-01-17 10:00:00 18.6 24 Este 34 Este 0 1028.6 1.5 65
2020-01-17 09:00:00 17.6 22 Nordeste 30 Nordeste 0 1028.2 1.7 67
2020-01-17 08:00:00 16.2 19 Nordeste 27 Este 0 1027.8 1.4 73
2020-01-17 07:00:00 16.1 18 Nordeste 27 Este 0 1027.1 0.7 72
2020-01-17 06:00:00 16 20 Nordeste 27 Nordeste 0 1026.5 -0.2 70
2020-01-17 05:00:00 15.8 18 Nordeste 24 Nordeste 0 1026.4 -0.1 70
2020-01-17 04:00:00 15.9 21 Nordeste 27 Nordeste 0 1026.4 -0.2 66
2020-01-17 03:00:00 13.9 10 Norte 15 Norte 0 1026.7 0 72
2020-01-17 02:00:00 13.4 13 Norte 18 Nordeste 0 1026.5 -0.1 72
2020-01-17 01:00:00 13.2 13 Norte 18 Norte 0 1026.6 0.2 68
2020-01-17 00:00:00 14.1 16 Nordeste 23 Nordeste 0 1026.7 0.3 59
2020-01-16 23:00:00 15.2 18 Nordeste 21 Nordeste 0 1026.6 0.8 52
2020-01-16 22:00:00 14.5 9 Norte 13 Norte 0 1026.4 1 43
2020-01-16 21:00:00 14.1 8 Norte 12 Norte 0 1026.4 1.5 49
2020-01-16 20:00:00 16.2 9 Norte 14 Este 0 1025.8 1.1 32
2020-01-16 19:00:00 17.7 9 Este -- -- 0 1025.4 0.9 30
2020-01-16 18:00:00 20 8 Este 17 Sudeste 0 1024.9 0.6 25
2020-01-16 17:00:00 21.7 9 Este 18 Sudeste 0 1024.7 0.2 22
2020-01-16 16:00:00 22.1 10 Sudeste 19 Sudeste 0 1024.5 -0.8 23
2020-01-16 15:00:00 22.4 10 Sudeste -- -- 0 1024.3 -1.3 22
2020-01-16 14:00:00 22.4 -- -- -- -- 0 1024.5 -1.3 28
2020-01-16 13:00:00 22.8 -- -- -- -- 0 1025.3 0.1 25
2020-01-16 12:00:00 22.3 -- -- -- -- 0 1025.6 1 26
2020-01-16 11:00:00 21.2 23 Sudeste -- -- 0 1025.8 2.2 31
2020-01-16 10:00:00 20.4 -- -- -- -- 0 1025.2 1.9 36
2020-01-16 09:00:00 18.6 18 Sudeste 33 Sudeste 0 1024.6 1.7 41
2020-01-16 08:00:00 17 19 Sudeste 34 Sudeste 0 1023.6 1.4 46
2020-01-16 07:00:00 16.7 18 Sudeste 30 Sudeste 0 1023.3 1.4 59
2020-01-16 06:00:00 17.2 18 Sudeste 31 Sudeste 0 1022.9 0.8 46
2020-01-16 05:00:00 16.9 23 Sudeste 35 Sudeste 0 1022.2 -0.4 55
2020-01-16 04:00:00 17.1 24 Sudeste 35 Sudeste 0 1021.9 -0.6 51
2020-01-16 03:00:00 16.9 23 Sudeste 33 Sudeste 0 1022.1 -0.6 58
2020-01-16 02:00:00 17.1 23 Sudeste 36 Sudeste 0 1022.6 -0.3 55
2020-01-16 01:00:00 17.3 27 Sudeste 38 Sudeste 0 1022.5 -0.2 53
2020-01-16 00:00:00 17.9 21 Sudeste 30 Sudeste 0 1022.7 0.4 35
2020-01-15 23:00:00 15.5 14 Norte 27 Norte 0 1022.9 1.1 56
2020-01-15 22:00:00 15.5 20 Norte -- -- 0 1022.7 1.1 61
2020-01-15 21:00:00 15.4 -- -- -- -- 0 1022.3 0.8 48
2020-01-15 20:00:00 17.2 15 Sudeste 24 Sudeste 0 1021.8 0.6 35
2020-01-15 19:00:00 17.3 13 Sudeste -- -- 0 1021.6 0.7 40
2020-01-15 18:00:00 19.2 6 Sudeste -- -- 0 1021.5 0.8 32
2020-01-15 17:00:00 20.7 -- -- -- -- 0 1021.2 0.4 31
2020-01-15 16:00:00 21.3 -- -- -- -- 0 1020.9 -0.8 33
2020-01-15 15:00:00 21.3 -- -- -- -- 0 1020.7 -1.7 33
2020-01-15 14:00:00 21.8 -- -- -- -- 0 1020.8 -2.1 28
2020-01-15 13:00:00 21.6 -- -- -- -- 0 1021.7 -1.4 31
2020-01-15 12:00:00 21.7 -- -- -- -- 0 1022.4 0.3 28
2020-01-15 11:00:00 21 -- -- -- -- 0 1022.9 1.8 33
2020-01-15 10:00:00 19.3 12 Sur -- -- 0 1023.1 2.8 47
2020-01-15 09:00:00 17.9 -- -- -- -- 0 1022.1 2.1 52
2020-01-15 08:00:00 16.7 19 Sudeste 26 Sudeste 0 1021.1 1.3 41
2020-01-15 07:00:00 16.5 21 Sudeste 30 Sudeste 0 1020.3 -0.1 51
2020-01-15 06:00:00 16.7 23 Sudeste 35 Sudeste 0 1020 -0.5 57
2020-01-15 05:00:00 16.8 26 Sudeste 36 Sudeste 0 1019.8 -0.6 55
2020-01-15 04:00:00 16.8 21 Sudeste 30 Este 0 1020.4 -0.5 57
2020-01-15 03:00:00 16.3 18 Sudeste 26 Sudeste 0 1020.5 -0.3 62
2020-01-15 02:00:00 13.8 8 Sudeste 18 Sudeste 0 1020.4 -0.3 59
2020-01-15 01:00:00 13.2 3 Sudoeste 9 Sur 0 1020.9 0.4 73
2020-01-15 00:00:00 13.7 6 Sudoeste 8 Sur 0 1020.8 0.6 48
2020-01-14 23:00:00 13.2 4 Norte 10 Norte 0 1020.7 0.4 56
2020-01-14 22:00:00 14.3 7 Nordeste 14 Nordeste 0 1020.5 0.2 52
2020-01-14 21:00:00 14.9 4 Nordeste 11 Sudeste 0 1020.2 0.5 45
2020-01-14 20:00:00 15.6 3 Sur -- -- 0 1020.3 0.7 58
2020-01-14 19:00:00 18 17 Sur -- -- 0 1020.3 0.7 42
2020-01-14 18:00:00 18.9 -- -- -- -- 0 1019.7 0.2 44
2020-01-14 17:00:00 20.2 -- -- -- -- 0 1019.6 -0.3 38
2020-01-14 16:00:00 20.9 -- -- -- -- 0 1019.6 -0.9 37
2020-01-14 15:00:00 21.4 -- -- -- -- 0 1019.5 -1.5 34
2020-01-14 14:00:00 21.5 -- -- -- -- 0 1019.9 -1.8 37
2020-01-14 13:00:00 21.7 -- -- -- -- 0 1020.5 -1.2 31
2020-01-14 12:00:00 20.7 23 Sudeste -- -- 0 1021 -0.2 32
2020-01-14 11:00:00 20.5 19 Sudeste -- -- 0 1021.7 1.4 42
2020-01-14 10:00:00 19.2 25 Sudeste -- -- 0 1021.7 1.8 44
2020-01-14 09:00:00 17.8 -- -- -- -- 0 1021.2 1.5 52
2020-01-14 08:00:00 16.7 20 Sudeste 41 Sudeste 0 1020.3 1 57
2020-01-14 07:00:00 16.9 26 Sur 35 Sur 0 1019.9 0.5 48
2020-01-14 06:00:00 16.5 18 Sudeste 33 Sudeste 0 1019.7 -0.1 58
2020-01-14 05:00:00 17.3 27 Sudeste 42 Sudeste 0 1019.3 -0.6 55
2020-01-14 04:00:00 17.4 28 Sudeste 37 Sudeste 0 1019.4 -0.9 58
2020-01-14 03:00:00 17.3 16 Este 34 Sudeste 0 1019.8 -0.9 63
2020-01-14 02:00:00 17.3 19 Este 35 Este 0 1019.9 -1.1 67
2020-01-14 01:00:00 17.8 24 Este 41 Sudeste 0 1020.3 -0.9 60
2020-01-14 00:00:00 17.7 27 Este 40 Sudeste 0 1020.7 -0.2 56
2020-01-13 23:00:00 18.4 25 Este 34 Este 0 1021 0 44
2020-01-13 22:00:00 18.4 26 Sudeste 35 Sudeste 0 1021.2 0.5 44
2020-01-13 21:00:00 18 26 Sudeste 35 Sudeste 0 1020.9 0.5 49
2020-01-13 20:00:00 17 8 Nordeste -- -- 0 1021 0.9 53
2020-01-13 19:00:00 16.9 -- -- -- -- 0 1020.7 0.3 58
2020-01-13 18:00:00 18.6 -- -- -- -- 0 1020.4 -0.5 44
2020-01-13 17:00:00 19.7 -- -- -- -- 0 1020.1 -1.6 40
2020-01-13 16:00:00 21 -- -- -- -- 0 1020.4 -2.4 36
2020-01-13 15:00:00 21.3 -- -- -- -- 0 1020.9 -2.8 36
2020-01-13 14:00:00 21.6 -- -- -- -- 0 1021.7 -2.1 35
2020-01-13 13:00:00 21.2 -- -- -- -- 0 1022.8 -0.8 38
2020-01-13 12:00:00 20.6 -- -- -- -- 0 1023.7 0.4 40
2020-01-13 11:00:00 20 -- -- -- -- 0 1023.8 1.1 39
2020-01-13 10:00:00 18.8 -- -- -- -- 0 1023.6 1.4 49
2020-01-13 09:00:00 18.1 26 Este 37 Este 0 1023.3 1.5 66
2020-01-13 08:00:00 17.3 27 Este 42 Este 0 1022.7 1.3 69
2020-01-13 07:00:00 17.2 28 Este 41 Nordeste 0 1022.2 0.5 68
2020-01-13 06:00:00 17.2 28 Este 50 Este 0 1021.8 -0.3 67
2020-01-13 05:00:00 17.2 31 Este 48 Este 0 1021.4 -0.8 70
2020-01-13 04:00:00 17.1 28 Este 37 Este 0 1021.7 -0.8 72
2020-01-13 03:00:00 16.7 22 Este 31 Nordeste 0 1022.1 -0.6 75
2020-01-13 02:00:00 16.8 22 Nordeste 33 Este 0 1022.2 -1 75
2020-01-13 01:00:00 16.7 26 Nordeste 34 Nordeste 0 1022.5 -1.5 78
2020-01-13 00:00:00 16.9 30 Nordeste 41 Nordeste 0 1022.7 -1 74
2020-01-12 23:00:00 16.9 28 Nordeste 35 Nordeste 0 1023.2 -0.3 72
2020-01-12 22:00:00 16.3 19 Nordeste 25 Nordeste 0 1024 1.1 70
2020-01-12 21:00:00 15 13 Nordeste 20 Nordeste 0 1023.7 1.7 71
2020-01-12 20:00:00 16.7 15 Nordeste 27 Nordeste 0 1023.5 2.2 64
2020-01-12 19:00:00 17.2 22 Nordeste 30 Este 0 1022.9 1.4 58
2020-01-12 18:00:00 17.7 23 Nordeste -- -- 0 1022 0.2 56
2020-01-12 17:00:00 18.7 -- -- -- -- 0 1021.3 -1.2 48
2020-01-12 16:00:00 19.7 -- -- -- -- 0 1021.5 -2 49
2020-01-12 15:00:00 20.3 -- -- -- -- 0 1021.8 -2.8 45
2020-01-12 14:00:00 20.9 -- -- -- -- 0 1022.5 -2.4 40
2020-01-12 13:00:00 20.6 -- -- -- -- 0 1023.5 -1.2 50
2020-01-12 12:00:00 20.2 -- -- -- -- 0 1024.6 0.9 55
2020-01-12 11:00:00 19.8 -- -- -- -- 0 1024.9 1.8 55
2020-01-12 10:00:00 18.7 20 Nordeste 28 Nordeste 0 1024.7 2.3 62
2020-01-12 09:00:00 17 19 Nordeste 25 Nordeste 0 1023.7 1.8 61
2020-01-12 08:00:00 15.7 19 Nordeste -- -- 0 1023.1 1.2 65
2020-01-12 07:00:00 16.2 19 Nordeste 32 Nordeste 0 1022.4 0 68
2020-01-12 06:00:00 17.3 22 Nordeste 30 Nordeste 0 1021.9 -0.7 69
2020-01-12 05:00:00 17.2 15 Nordeste 29 Nordeste 0 1021.9 -0.7 65
2020-01-12 04:00:00 17.2 16 Nordeste 30 Nordeste 0 1022.4 0.2 64
2020-01-12 03:00:00 17.1 19 Nordeste 30 Nordeste 0 1022.6 -0.1 65
2020-01-12 02:00:00 17.2 23 Nordeste 39 Nordeste 0 1022.6 -0.3 62
2020-01-12 01:00:00 17.4 22 Nordeste 38 Nordeste 0 1022.2 -0.5 66
2020-01-12 00:00:00 17.1 23 Nordeste 41 Nordeste 0 1022.7 0.1 66
2020-01-11 23:00:00 17.2 25 Nordeste 37 Nordeste 0 1022.9 0.6 64
2020-01-11 22:00:00 17 30 Nordeste 41 Nordeste 0 1022.7 0.6 63
2020-01-11 21:00:00 17.2 28 Norte 42 Norte 0 1022.6 0.7 63
2020-01-11 20:00:00 17.3 29 Nordeste 43 Nordeste 0 1022.3 0.3 63
2020-01-11 19:00:00 17.4 27 Norte 40 Norte 0 1022.1 0.3 63
2020-01-11 18:00:00 17.7 25 Norte 35 Norte 0 1021.9 -0.1 61
2020-01-11 17:00:00 18.1 17 Norte 36 Nordeste 0 1022 -0.2 60
2020-01-11 16:00:00 18.5 27 Norte 38 Nordeste 0 1021.8 -1.3 58
2020-01-11 15:00:00 18.5 22 Norte 37 Norte 0 1022 -1.8 61
2020-01-11 14:00:00 18.8 27 Norte 38 Nordeste 0 1022.2 -2.4 58
2020-01-11 13:00:00 18.5 23 Nordeste 40 Norte 0 1023.1 -1.4 59
2020-01-11 12:00:00 18.3 22 Norte 34 Norte 0 1023.8 0.1 63
2020-01-11 11:00:00 18.5 27 Nordeste 37 Norte 0 1024.6 1.1 56
2020-01-11 10:00:00 18.1 24 Norte 36 Norte 0 1024.5 1.4 59
2020-01-11 09:00:00 17.5 26 Norte 34 Norte 0 1023.7 0.5 66
2020-01-11 08:00:00 17.1 26 Norte 42 Norte 0 1023.5 0.4 61
2020-01-11 07:00:00 17.3 29 Nordeste 39 Norte 0 1023.1 -0.7 73
2020-01-11 06:00:00 16.4 19 Norte 42 Nordeste 0 1023.2 -0.9 67
2020-01-11 05:00:00 17.1 29 Nordeste 40 Norte 0 1023.1 -1.1 69
2020-01-11 04:00:00 16.9 19 Norte 37 Nordeste 0 1023.8 -0.7 64
2020-01-11 03:00:00 17.3 19 Norte 30 Norte 0 1024.1 -0.7 67
2020-01-11 02:00:00 17.3 25 Norte 40 Norte 0 1024.2 -1.1 63
2020-01-11 01:00:00 17.4 21 Norte 35 Norte 0 1024.5 -0.7 69
2020-01-11 00:00:00 17.2 23 Norte 38 Norte 0 1024.8 -0.2 64
2020-01-10 23:00:00 17.6 29 Norte 39 Norte 0 1025.3 0.7 73
2020-01-10 22:00:00 17.4 26 Norte 39 Norte 0 1025.2 1.1 75
2020-01-10 21:00:00 17.7 29 Norte 41 Norte 0 1025 1.3 75
2020-01-10 20:00:00 17.5 24 Norte -- -- 0 1024.6 1 78
2020-01-10 19:00:00 18 24 Norte 35 Norte 0 1024.1 0.5 78
2020-01-10 18:00:00 18.4 -- -- -- -- 0 1023.7 0 71
2020-01-10 17:00:00 19.2 -- -- -- -- 0 1023.6 -0.2 66
2020-01-10 16:00:00 19.7 -- -- -- -- 0 1023.6 -0.8 65
2020-01-10 15:00:00 20.3 -- -- -- -- 0 1023.7 -1.6 61
2020-01-10 14:00:00 19.5 -- -- -- -- 0 1023.8 -2 65
2020-01-10 13:00:00 20.7 -- -- -- -- 0 1024.4 -1.3 62
2020-01-10 12:00:00 20.6 37 Nordeste 50 Nordeste 0 1025.3 0.1 65
2020-01-10 11:00:00 19.4 36 Nordeste 50 Nordeste 0 1025.8 1 69
2020-01-10 10:00:00 18.6 34 Nordeste 46 Nordeste 0 1025.7 1.2 75
2020-01-10 09:00:00 17.5 32 Nordeste 48 Nordeste 0 1025.2 1 81
2020-01-10 08:00:00 16.8 27 Norte 51 Nordeste 0.2 1024.8 0.4 89
2020-01-10 07:00:00 16.5 23 Norte 48 Nordeste 0.4 1024.5 -0.2 98
2020-01-10 06:00:00 17.1 28 Nordeste 43 Nordeste 0.2 1024.2 -0.7 90
2020-01-10 05:00:00 16.7 27 Nordeste 48 Norte 0.2 1024.4 -0.6 92
2020-01-10 04:00:00 16.2 26 Nordeste -- -- 0.4 1024.7 -0.6 96
2020-01-10 03:00:00 18 24 Nordeste 39 Nordeste 0 1024.9 -0.8 81
2020-01-10 02:00:00 18.1 26 Nordeste 41 Nordeste 0 1025 -1 79
2020-01-10 01:00:00 18.1 27 Nordeste 37 Nordeste 0 1025.3 -0.9 76
2020-01-10 00:00:00 17.9 23 Nordeste 42 Nordeste 0 1025.7 -0.4 77
2020-01-09 23:00:00 18.1 24 Nordeste 40 Nordeste 0 1026 0.1 77
2020-01-09 22:00:00 17.8 26 Norte 38 Norte 0 1026.2 0.7 74
2020-01-09 21:00:00 17.9 30 Norte 42 Norte 0 1026.1 0.9 67
2020-01-09 20:00:00 17.8 30 Norte 43 Norte 0 1025.9 1 63
2020-01-09 19:00:00 17.8 31 Norte 45 Nordeste 0 1025.5 0.8 61
2020-01-09 18:00:00 18.1 30 Norte 40 Norte 0 1025.2 0.6 62
2020-01-09 17:00:00 18.8 27 Norte 38 Nordeste 0 1024.9 0 58
2020-01-09 16:00:00 19.7 25 Nordeste 41 Nordeste 0 1024.7 -0.7 57
2020-01-09 15:00:00 19.7 31 Nordeste 41 Nordeste 0 1024.6 -1.5 55
2020-01-09 14:00:00 20.7 30 Nordeste 42 Nordeste 0 1024.9 -1.5 56
2020-01-09 13:00:00 20.5 29 Nordeste 40 Nordeste 0 1025.4 -0.6 54
2020-01-09 12:00:00 19.5 31 Nordeste 44 Norte 0 1026.1 0.8 59
2020-01-09 11:00:00 20.1 31 Nordeste 42 Nordeste 0 1026.4 1.6 52
2020-01-09 10:00:00 18.7 26 Nordeste 36 Norte 0 1026 1.5 61
2020-01-09 09:00:00 17.3 19 Norte 27 Norte 0 1025.3 0.9 68
2020-01-09 08:00:00 16.8 20 Norte 31 Norte 0 1024.8 0.4 68
2020-01-09 07:00:00 17 22 Norte 32 Norte 0 1024.5 -0.2 70
2020-01-09 06:00:00 16.8 19 Norte 27 Norte 0 1024.4 -0.5 67
2020-01-09 05:00:00 16.7 22 Norte 32 Norte 0 1024.4 -0.7 67
2020-01-09 04:00:00 17 20 Norte 30 Norte 0 1024.7 -0.6 63
2020-01-09 03:00:00 16.1 16 Norte 27 Nordeste 0 1024.9 -0.9 68
2020-01-09 02:00:00 16.1 19 Norte 27 Nordeste 0 1025.1 -0.9 71
2020-01-09 01:00:00 16.1 18 Nordeste 26 Nordeste 0 1025.3 -0.6 70
2020-01-09 00:00:00 16.2 17 Norte 32 Norte 0 1025.8 -0.1 71
2020-01-08 23:00:00 16.8 21 Norte 32 Norte 0 1026 0.5 70
2020-01-08 22:00:00 16.4 18 Norte 28 Norte 0 1025.9 0.9 70
2020-01-08 21:00:00 16.6 18 Nordeste 30 Nordeste 0 1025.9 1.2 71
2020-01-08 20:00:00 16.8 19 Norte 27 Nordeste 0 1025.5 1 69
2020-01-08 19:00:00 17.2 19 Norte 29 Norte 0 1025 0.6 68
2020-01-08 18:00:00 17.7 16 Nordeste 24 Nordeste 0 1024.7 0.3 64
2020-01-08 17:00:00 19.1 18 Nordeste 29 Nordeste 0 1024.5 -0.1 59
2020-01-08 16:00:00 19.8 21 Nordeste 34 Nordeste 0 1024.4 -1 56
2020-01-08 15:00:00 20 22 Nordeste 35 Nordeste 0 1024.4 -1.8 55
2020-01-08 14:00:00 20.5 22 Nordeste -- -- 0 1024.6 -2.1 53
2020-01-08 13:00:00 21.1 21 Nordeste -- -- 0 1025.4 -0.9 53
2020-01-08 12:00:00 20.6 23 Nordeste 29 Nordeste 0 1026.2 0.5 56
2020-01-08 11:00:00 18.7 23 Nordeste 33 Nordeste 0 1026.7 1.9 63
2020-01-08 10:00:00 19.4 22 Nordeste 29 Nordeste 0 1026.3 1.8 61
2020-01-08 09:00:00 17.5 19 Nordeste 31 Nordeste 0 1025.7 1.4 70
2020-01-08 08:00:00 14.9 17 Nordeste 21 Nordeste 0 1024.8 0.8 78
2020-01-08 07:00:00 14.7 15 Norte 21 Nordeste 0 1024.5 0.2 78
2020-01-08 06:00:00 14.9 14 Norte 24 Nordeste 0 1024.3 -0.1 78
2020-01-08 05:00:00 15.5 16 Nordeste 22 Norte 0 1024 -0.4 75
2020-01-08 04:00:00 16 17 Nordeste 31 Nordeste 0 1024.3 -0.1 73
2020-01-08 03:00:00 16.9 24 Nordeste 31 Nordeste 0 1024.4 -0.4 73
2020-01-08 02:00:00 16.9 25 Nordeste 33 Nordeste 0 1024.4 -0.8 70
2020-01-08 01:00:00 16.7 24 Nordeste 32 Nordeste 0 1024.4 -0.8 72
2020-01-08 00:00:00 16.4 21 Nordeste 31 Nordeste 0 1024.8 -0.2 70
2020-01-07 23:00:00 16.4 19 Nordeste 30 Nordeste 0 1025.2 0.4 75
2020-01-07 22:00:00 16.7 21 Nordeste 30 Nordeste 0 1025.2 0.7 75
2020-01-07 21:00:00 16.7 20 Norte 29 Norte 0 1025 0.9 74
2020-01-07 20:00:00 16.8 18 Norte 27 Norte 0 1024.8 1 73
2020-01-07 19:00:00 16.9 13 Nordeste 28 Nordeste 0 1024.5 0.8 72
2020-01-07 18:00:00 17.7 20 Nordeste 29 Nordeste 0 1024.1 0.3 68
2020-01-07 17:00:00 19.1 23 Nordeste -- -- 0 1023.8 -0.3 64
2020-01-07 16:00:00 20.1 -- -- -- -- 0 1023.7 -1 64
2020-01-07 15:00:00 20.5 -- -- -- -- 0 1023.8 -1.5 62
2020-01-07 14:00:00 21.2 -- -- -- -- 0 1024.1 -1.6 63
2020-01-07 13:00:00 21 -- -- -- -- 0 1024.7 -0.9 63
2020-01-07 12:00:00 20.7 -- -- -- -- 0 1025.3 0.5 65
2020-01-07 11:00:00 19.9 22 Nordeste 31 Nordeste 0 1025.7 1.8 68
2020-01-07 10:00:00 18.6 21 Nordeste 27 Nordeste 0 1025.6 2.5 73
2020-01-07 09:00:00 17.3 20 Nordeste 30 Nordeste 0 1024.8 2.2 74
2020-01-07 08:00:00 16.8 21 Nordeste 32 Nordeste 0 1023.9 1.5 76
2020-01-07 07:00:00 16.8 22 Nordeste 32 Nordeste 0 1023.1 0.6 73
2020-01-07 06:00:00 16.3 22 Nordeste 32 Nordeste 0 1022.6 0 71
2020-01-07 05:00:00 16.4 24 Nordeste 34 Nordeste 0 1022.4 -0.4 71
2020-01-07 04:00:00 16.2 24 Nordeste 33 Nordeste 0 1022.5 -0.4 72
2020-01-07 03:00:00 16.3 25 Nordeste 33 Nordeste 0 1022.6 -0.5 71
2020-01-07 02:00:00 16.1 23 Nordeste 32 Nordeste 0 1022.8 -0.6 73
2020-01-07 01:00:00 16.1 24 Nordeste 31 Nordeste 0 1022.9 -0.3 72
2020-01-07 00:00:00 14.4 10 Nordeste 15 Nordeste 0 1023.1 0.2 84
2020-01-06 23:00:00 15.1 6 Norte 36 Este 0.4 1023.4 0.8 85
2020-01-06 22:00:00 16.9 16 Nordeste 23 Nordeste 0 1023.2 0.7 71
2020-01-06 21:00:00 16.9 18 Norte 23 Norte 0 1022.9 1.3 63
2020-01-06 20:00:00 16.7 15 Norte 22 Norte 0 1022.6 0.5 71
2020-01-06 19:00:00 16.4 15 Norte 22 Norte 0 1022.5 1 62
2020-01-06 18:00:00 15.4 16 Este 34 Norte 0 1021.6 0.2 72
2020-01-06 17:00:00 15.5 30 Norte 45 Norte 0 1022.1 0.2 75
2020-01-06 16:00:00 18.2 26 Norte -- -- 0 1021.5 -1.2 71
2020-01-06 15:00:00 19.9 -- -- -- -- 0 1021.4 -2 57
2020-01-06 14:00:00 20 -- -- -- -- 0 1021.9 -2.8 57
2020-01-06 13:00:00 20.7 19 Norte 31 Nordeste 0 1022.7 -2 52
2020-01-06 12:00:00 19.9 15 Norte 29 Nordeste 0 1023.4 -0.7 57
2020-01-06 11:00:00 19.9 21 Nordeste 30 Norte 0 1024.7 1.2 53
2020-01-06 10:00:00 18.9 17 Norte 24 Norte 0 1024.7 0.8 65
2020-01-06 09:00:00 17.7 14 Norte 22 Norte 0 1024.1 0.4 65